sensor_id;sensor_type;location;lat;lon;timestamp;temperature;humidity
75321;DHT22;63920;52.130;5.584;2022-10-28T00:01:29;16.60;91.70
75321;DHT22;63920;52.130;5.584;2022-10-28T00:03:59;16.50;91.60
75321;DHT22;63920;52.130;5.584;2022-10-28T00:06:30;16.40;91.80
75321;DHT22;63920;52.130;5.584;2022-10-28T00:08:57;16.40;92.00
75321;DHT22;63920;52.130;5.584;2022-10-28T00:11:29;16.30;91.80
75321;DHT22;63920;52.130;5.584;2022-10-28T00:13:56;16.20;92.50
75321;DHT22;63920;52.130;5.584;2022-10-28T00:16:28;16.20;92.10
75321;DHT22;63920;52.130;5.584;2022-10-28T00:18:55;16.20;92.20
75321;DHT22;63920;52.130;5.584;2022-10-28T00:21:24;16.30;92.20
75321;DHT22;63920;52.130;5.584;2022-10-28T00:23:50;16.30;92.10
75321;DHT22;63920;52.130;5.584;2022-10-28T00:26:24;16.10;92.20
75321;DHT22;63920;52.130;5.584;2022-10-28T00:28:53;16.20;92.60
75321;DHT22;63920;52.130;5.584;2022-10-28T00:31:21;16.10;91.90
75321;DHT22;63920;52.130;5.584;2022-10-28T00:33:46;16.10;92.00
75321;DHT22;63920;52.130;5.584;2022-10-28T00:36:23;16.10;92.10
75321;DHT22;63920;52.130;5.584;2022-10-28T00:38:51;16.10;92.20
75321;DHT22;63920;52.130;5.584;2022-10-28T00:41:26;16.10;92.30
75321;DHT22;63920;52.130;5.584;2022-10-28T00:43:55;16.00;92.20
75321;DHT22;63920;52.130;5.584;2022-10-28T00:46:43;16.00;92.30
75321;DHT22;63920;52.130;5.584;2022-10-28T00:51:52;16.00;92.40
75321;DHT22;63920;52.130;5.584;2022-10-28T00:54:19;16.00;92.40
75321;DHT22;63920;52.130;5.584;2022-10-28T00:56:49;15.90;92.30
75321;DHT22;63920;52.130;5.584;2022-10-28T00:59:20;16.00;92.50
75321;DHT22;63920;52.130;5.584;2022-10-28T01:01:47;16.00;92.30
75321;DHT22;63920;52.130;5.584;2022-10-28T01:04:13;16.00;92.40
75321;DHT22;63920;52.130;5.584;2022-10-28T01:06:40;16.00;92.40
75321;DHT22;63920;52.130;5.584;2022-10-28T01:09:05;16.00;92.50
75321;DHT22;63920;52.130;5.584;2022-10-28T01:17:27;16.00;92.60
75321;DHT22;63920;52.130;5.584;2022-10-28T01:34:17;15.70;92.40
75321;DHT22;63920;52.130;5.584;2022-10-28T01:39:38;15.60;92.60
75321;DHT22;63920;52.130;5.584;2022-10-28T01:42:27;15.50;92.50
75321;DHT22;63920;52.130;5.584;2022-10-28T01:45:06;15.50;92.60
75321;DHT22;63920;52.130;5.584;2022-10-28T01:48:00;15.50;92.60
75321;DHT22;63920;52.130;5.584;2022-10-28T01:50:31;15.40;92.60
75321;DHT22;63920;52.130;5.584;2022-10-28T01:53:03;15.40;92.60
75321;DHT22;63920;52.130;5.584;2022-10-28T01:55:35;15.80;92.70
75321;DHT22;63920;52.130;5.584;2022-10-28T01:58:03;15.40;92.60
75321;DHT22;63920;52.130;5.584;2022-10-28T02:00:31;15.30;92.50
75321;DHT22;63920;52.130;5.584;2022-10-28T02:02:57;15.30;92.80
75321;DHT22;63920;52.130;5.584;2022-10-28T02:05:45;15.20;92.80
75321;DHT22;63920;52.130;5.584;2022-10-28T02:16:52;15.20;93.10
75321;DHT22;63920;52.130;5.584;2022-10-28T02:24:51;15.20;93.40
75321;DHT22;63920;52.130;5.584;2022-10-28T02:27:29;15.30;93.00
75321;DHT22;63920;52.130;5.584;2022-10-28T02:30:12;15.30;93.10
75321;DHT22;63920;52.130;5.584;2022-10-28T02:32:43;15.30;92.80
75321;DHT22;63920;52.130;5.584;2022-10-28T02:35:15;15.30;92.70
75321;DHT22;63920;52.130;5.584;2022-10-28T02:37:44;15.30;92.80
75321;DHT22;63920;52.130;5.584;2022-10-28T02:40:15;15.30;92.80
75321;DHT22;63920;52.130;5.584;2022-10-28T02:42:52;15.30;92.60
75321;DHT22;63920;52.130;5.584;2022-10-28T02:45:23;15.30;92.80
75321;DHT22;63920;52.130;5.584;2022-10-28T02:47:54;15.40;92.90
75321;DHT22;63920;52.130;5.584;2022-10-28T02:50:26;15.30;92.90
75321;DHT22;63920;52.130;5.584;2022-10-28T02:52:55;15.40;92.80
75321;DHT22;63920;52.130;5.584;2022-10-28T02:55:24;15.40;92.90
75321;DHT22;63920;52.130;5.584;2022-10-28T02:57:51;15.30;92.90
75321;DHT22;63920;52.130;5.584;2022-10-28T03:00:20;15.40;93.00
75321;DHT22;63920;52.130;5.584;2022-10-28T03:02:46;15.30;93.00
75321;DHT22;63920;52.130;5.584;2022-10-28T03:05:12;15.40;93.10
75321;DHT22;63920;52.130;5.584;2022-10-28T03:07:38;15.40;93.00
75321;DHT22;63920;52.130;5.584;2022-10-28T03:10:04;15.50;93.10
75321;DHT22;63920;52.130;5.584;2022-10-28T03:12:30;15.50;93.00
75321;DHT22;63920;52.130;5.584;2022-10-28T03:14:55;15.60;93.00
75321;DHT22;63920;52.130;5.584;2022-10-28T03:17:21;15.50;92.80
75321;DHT22;63920;52.130;5.584;2022-10-28T03:19:46;15.50;92.90
75321;DHT22;63920;52.130;5.584;2022-10-28T03:22:12;15.60;93.10
75321;DHT22;63920;52.130;5.584;2022-10-28T03:24:37;15.60;93.10
75321;DHT22;63920;52.130;5.584;2022-10-28T03:27:03;15.60;92.80
75321;DHT22;63920;52.130;5.584;2022-10-28T03:29:28;15.60;92.80
75321;DHT22;63920;52.130;5.584;2022-10-28T03:31:57;15.60;92.80
75321;DHT22;63920;52.130;5.584;2022-10-28T03:34:22;15.60;92.70
75321;DHT22;63920;52.130;5.584;2022-10-28T03:36:48;15.70;92.70
75321;DHT22;63920;52.130;5.584;2022-10-28T03:39:13;15.60;92.60
75321;DHT22;63920;52.130;5.584;2022-10-28T03:41:39;15.70;92.50
75321;DHT22;63920;52.130;5.584;2022-10-28T03:44:05;15.70;92.50
75321;DHT22;63920;52.130;5.584;2022-10-28T03:46:30;15.70;92.60
75321;DHT22;63920;52.130;5.584;2022-10-28T03:48:56;15.70;92.60
75321;DHT22;63920;52.130;5.584;2022-10-28T03:51:21;15.60;92.70
75321;DHT22;63920;52.130;5.584;2022-10-28T03:53:47;15.70;92.60
75321;DHT22;63920;52.130;5.584;2022-10-28T03:56:16;15.70;92.60
75321;DHT22;63920;52.130;5.584;2022-10-28T03:58:41;15.80;92.60
75321;DHT22;63920;52.130;5.584;2022-10-28T04:01:07;15.70;92.60
75321;DHT22;63920;52.130;5.584;2022-10-28T04:03:32;15.70;93.00
75321;DHT22;63920;52.130;5.584;2022-10-28T04:05:58;15.60;92.70
75321;DHT22;63920;52.130;5.584;2022-10-28T04:08:23;15.60;92.60
75321;DHT22;63920;52.130;5.584;2022-10-28T04:10:49;15.60;92.60
75321;DHT22;63920;52.130;5.584;2022-10-28T04:13:15;15.60;92.60
75321;DHT22;63920;52.130;5.584;2022-10-28T04:15:41;15.60;92.70
75321;DHT22;63920;52.130;5.584;2022-10-28T04:18:07;15.60;92.70
75321;DHT22;63920;52.130;5.584;2022-10-28T04:20:32;15.60;92.70
75321;DHT22;63920;52.130;5.584;2022-10-28T04:22:58;15.70;92.50
75321;DHT22;63920;52.130;5.584;2022-10-28T04:25:24;15.60;92.50
75321;DHT22;63920;52.130;5.584;2022-10-28T04:27:50;15.60;92.60
75321;DHT22;63920;52.130;5.584;2022-10-28T04:30:16;15.60;92.40
75321;DHT22;63920;52.130;5.584;2022-10-28T04:32:42;15.60;92.60
75321;DHT22;63920;52.130;5.584;2022-10-28T04:35:09;15.60;92.40
75321;DHT22;63920;52.130;5.584;2022-10-28T04:37:37;15.60;92.40
75321;DHT22;63920;52.130;5.584;2022-10-28T04:40:03;15.50;92.40
75321;DHT22;63920;52.130;5.584;2022-10-28T04:42:29;15.50;92.40
75321;DHT22;63920;52.130;5.584;2022-10-28T04:44:54;15.40;92.50
75321;DHT22;63920;52.130;5.584;2022-10-28T04:47:20;15.50;92.40
75321;DHT22;63920;52.130;5.584;2022-10-28T04:49:46;15.40;92.30
75321;DHT22;63920;52.130;5.584;2022-10-28T04:52:12;15.50;92.40
75321;DHT22;63920;52.130;5.584;2022-10-28T04:54:37;15.40;92.40
75321;DHT22;63920;52.130;5.584;2022-10-28T04:57:03;15.50;92.40
75321;DHT22;63920;52.130;5.584;2022-10-28T04:59:29;15.50;92.40
75321;DHT22;63920;52.130;5.584;2022-10-28T05:01:55;15.40;92.30
75321;DHT22;63920;52.130;5.584;2022-10-28T05:04:20;15.40;92.50
75321;DHT22;63920;52.130;5.584;2022-10-28T05:06:46;15.40;92.40
75321;DHT22;63920;52.130;5.584;2022-10-28T05:09:11;15.30;92.50
75321;DHT22;63920;52.130;5.584;2022-10-28T05:11:37;15.30;92.80
75321;DHT22;63920;52.130;5.584;2022-10-28T05:14:03;15.60;92.70
75321;DHT22;63920;52.130;5.584;2022-10-28T05:16:29;15.30;92.70
75321;DHT22;63920;52.130;5.584;2022-10-28T05:18:55;15.20;92.60
75321;DHT22;63920;52.130;5.584;2022-10-28T05:21:21;15.20;92.70
75321;DHT22;63920;52.130;5.584;2022-10-28T05:23:47;15.20;92.60
75321;DHT22;63920;52.130;5.584;2022-10-28T05:26:12;15.20;92.50
75321;DHT22;63920;52.130;5.584;2022-10-28T05:28:38;15.20;92.60
75321;DHT22;63920;52.130;5.584;2022-10-28T05:31:04;15.20;92.60
75321;DHT22;63920;52.130;5.584;2022-10-28T05:33:29;15.10;92.70
75321;DHT22;63920;52.130;5.584;2022-10-28T05:35:57;15.20;92.70
75321;DHT22;63920;52.130;5.584;2022-10-28T05:38:23;15.20;92.60
75321;DHT22;63920;52.130;5.584;2022-10-28T05:40:48;15.20;92.60
75321;DHT22;63920;52.130;5.584;2022-10-28T05:43:14;15.10;92.60
75321;DHT22;63920;52.130;5.584;2022-10-28T05:45:39;15.10;92.60
75321;DHT22;63920;52.130;5.584;2022-10-28T05:48:05;15.20;92.60
75321;DHT22;63920;52.130;5.584;2022-10-28T05:50:31;15.20;92.40
75321;DHT22;63920;52.130;5.584;2022-10-28T05:52:56;15.10;92.50
75321;DHT22;63920;52.130;5.584;2022-10-28T05:55:25;15.20;92.50
75321;DHT22;63920;52.130;5.584;2022-10-28T05:57:52;15.10;92.50
75321;DHT22;63920;52.130;5.584;2022-10-28T06:00:20;15.00;92.40
75321;DHT22;63920;52.130;5.584;2022-10-28T06:02:46;15.10;92.60
75321;DHT22;63920;52.130;5.584;2022-10-28T06:05:11;15.10;92.60
75321;DHT22;63920;52.130;5.584;2022-10-28T06:07:38;15.10;92.70
75321;DHT22;63920;52.130;5.584;2022-10-28T06:10:06;15.10;92.60
75321;DHT22;63920;52.130;5.584;2022-10-28T06:12:32;15.00;92.50
75321;DHT22;63920;52.130;5.584;2022-10-28T06:14:57;15.00;92.50
75321;DHT22;63920;52.130;5.584;2022-10-28T06:17:23;15.00;92.40
75321;DHT22;63920;52.130;5.584;2022-10-28T06:19:49;15.00;92.30
75321;DHT22;63920;52.130;5.584;2022-10-28T06:22:14;15.00;92.20
75321;DHT22;63920;52.130;5.584;2022-10-28T06:24:40;14.90;92.00
75321;DHT22;63920;52.130;5.584;2022-10-28T06:27:05;14.90;92.10
75321;DHT22;63920;52.130;5.584;2022-10-28T06:29:32;14.90;92.10
75321;DHT22;63920;52.130;5.584;2022-10-28T06:31:58;14.90;92.50
75321;DHT22;63920;52.130;5.584;2022-10-28T06:34:23;14.80;92.30
75321;DHT22;63920;52.130;5.584;2022-10-28T06:36:49;14.80;92.60
75321;DHT22;63920;52.130;5.584;2022-10-28T06:39:15;14.90;92.40
75321;DHT22;63920;52.130;5.584;2022-10-28T06:41:40;14.80;92.30
75321;DHT22;63920;52.130;5.584;2022-10-28T06:44:06;14.90;92.10
75321;DHT22;63920;52.130;5.584;2022-10-28T06:46:31;14.90;92.40
75321;DHT22;63920;52.130;5.584;2022-10-28T06:48:57;14.90;92.60
75321;DHT22;63920;52.130;5.584;2022-10-28T06:51:23;14.80;92.50
75321;DHT22;63920;52.130;5.584;2022-10-28T06:53:51;14.90;92.70
75321;DHT22;63920;52.130;5.584;2022-10-28T06:56:17;14.90;92.70
75321;DHT22;63920;52.130;5.584;2022-10-28T06:58:43;14.90;92.80
75321;DHT22;63920;52.130;5.584;2022-10-28T07:01:08;14.90;92.60
75321;DHT22;63920;52.130;5.584;2022-10-28T07:03:34;15.00;92.80
75321;DHT22;63920;52.130;5.584;2022-10-28T07:06:00;15.10;92.60
75321;DHT22;63920;52.130;5.584;2022-10-28T07:08:26;15.10;92.40
75321;DHT22;63920;52.130;5.584;2022-10-28T07:10:56;15.20;92.50
75321;DHT22;63920;52.130;5.584;2022-10-28T07:13:23;15.20;92.40
75321;DHT22;63920;52.130;5.584;2022-10-28T07:15:55;15.20;92.20
75321;DHT22;63920;52.130;5.584;2022-10-28T07:18:23;15.30;92.20
75321;DHT22;63920;52.130;5.584;2022-10-28T07:20:48;15.30;92.20
75321;DHT22;63920;52.130;5.584;2022-10-28T07:23:14;15.30;92.10
75321;DHT22;63920;52.130;5.584;2022-10-28T07:25:40;15.30;92.20
75321;DHT22;63920;52.130;5.584;2022-10-28T07:28:06;15.30;92.10
75321;DHT22;63920;52.130;5.584;2022-10-28T07:30:31;15.30;92.30
75321;DHT22;63920;52.130;5.584;2022-10-28T07:32:57;15.30;92.20
75321;DHT22;63920;52.130;5.584;2022-10-28T07:35:29;15.30;92.40
75321;DHT22;63920;52.130;5.584;2022-10-28T07:37:55;15.30;92.50
75321;DHT22;63920;52.130;5.584;2022-10-28T07:40:21;15.30;92.40
75321;DHT22;63920;52.130;5.584;2022-10-28T07:42:47;15.30;92.60
75321;DHT22;63920;52.130;5.584;2022-10-28T07:45:12;15.30;92.40
75321;DHT22;63920;52.130;5.584;2022-10-28T07:47:38;15.30;92.40
75321;DHT22;63920;52.130;5.584;2022-10-28T07:50:04;15.40;92.90
75321;DHT22;63920;52.130;5.584;2022-10-28T07:52:30;15.40;92.40
75321;DHT22;63920;52.130;5.584;2022-10-28T07:54:56;15.50;92.40
75321;DHT22;63920;52.130;5.584;2022-10-28T07:57:21;15.50;92.40
75321;DHT22;63920;52.130;5.584;2022-10-28T07:59:47;15.60;92.40
75321;DHT22;63920;52.130;5.584;2022-10-28T08:02:23;15.60;92.40
75321;DHT22;63920;52.130;5.584;2022-10-28T08:04:49;15.80;92.20
75321;DHT22;63920;52.130;5.584;2022-10-28T08:07:16;15.80;92.20
75321;DHT22;63920;52.130;5.584;2022-10-28T08:09:41;16.00;92.00
75321;DHT22;63920;52.130;5.584;2022-10-28T08:12:08;16.00;92.00
75321;DHT22;63920;52.130;5.584;2022-10-28T08:14:36;16.10;91.80
75321;DHT22;63920;52.130;5.584;2022-10-28T08:17:02;16.10;91.70
75321;DHT22;63920;52.130;5.584;2022-10-28T08:19:27;16.40;91.60
75321;DHT22;63920;52.130;5.584;2022-10-28T08:21:53;16.20;91.50
75321;DHT22;63920;52.130;5.584;2022-10-28T08:24:19;16.30;91.50
75321;DHT22;63920;52.130;5.584;2022-10-28T08:26:44;16.30;91.40
75321;DHT22;63920;52.130;5.584;2022-10-28T08:29:10;16.30;91.30
75321;DHT22;63920;52.130;5.584;2022-10-28T08:31:37;16.40;90.90
75321;DHT22;63920;52.130;5.584;2022-10-28T08:34:02;16.50;90.90
75321;DHT22;63920;52.130;5.584;2022-10-28T08:36:28;16.40;91.10
75321;DHT22;63920;52.130;5.584;2022-10-28T08:38:54;16.50;91.20
75321;DHT22;63920;52.130;5.584;2022-10-28T08:41:44;16.60;90.90
75321;DHT22;63920;52.130;5.584;2022-10-28T08:47:27;16.90;90.90
75321;DHT22;63920;52.130;5.584;2022-10-28T08:50:01;17.00;90.70
75321;DHT22;63920;52.130;5.584;2022-10-28T08:52:43;17.20;90.20
75321;DHT22;63920;52.130;5.584;2022-10-28T08:55:44;17.30;90.30
75321;DHT22;63920;52.130;5.584;2022-10-28T08:58:18;17.30;89.90
75321;DHT22;63920;52.130;5.584;2022-10-28T09:00:52;17.40;89.50
75321;DHT22;63920;52.130;5.584;2022-10-28T09:03:24;17.40;88.90
75321;DHT22;63920;52.130;5.584;2022-10-28T09:05:58;17.40;89.60
75321;DHT22;63920;52.130;5.584;2022-10-28T09:08:27;17.40;89.60
75321;DHT22;63920;52.130;5.584;2022-10-28T09:14:02;17.50;89.00
75321;DHT22;63920;52.130;5.584;2022-10-28T09:16:48;17.60;88.80
75321;DHT22;63920;52.130;5.584;2022-10-28T09:22:14;17.70;89.50
75321;DHT22;63920;52.130;5.584;2022-10-28T09:24:53;17.80;89.70
75321;DHT22;63920;52.130;5.584;2022-10-28T09:30:19;17.90;89.70
75321;DHT22;63920;52.130;5.584;2022-10-28T09:35:32;18.00;89.10
75321;DHT22;63920;52.130;5.584;2022-10-28T09:38:18;18.00;89.60
75321;DHT22;63920;52.130;5.584;2022-10-28T09:40:51;18.10;89.00
75321;DHT22;63920;52.130;5.584;2022-10-28T09:43:31;18.20;89.00
75321;DHT22;63920;52.130;5.584;2022-10-28T09:46:02;18.30;87.40
75321;DHT22;63920;52.130;5.584;2022-10-28T09:48:35;18.40;88.20
75321;DHT22;63920;52.130;5.584;2022-10-28T09:51:04;18.40;87.40
75321;DHT22;63920;52.130;5.584;2022-10-28T09:53:42;18.40;87.20
75321;DHT22;63920;52.130;5.584;2022-10-28T09:56:09;18.50;86.90
75321;DHT22;63920;52.130;5.584;2022-10-28T09:58:35;18.60;86.50
75321;DHT22;63920;52.130;5.584;2022-10-28T10:01:03;18.60;86.90
75321;DHT22;63920;52.130;5.584;2022-10-28T10:03:29;18.60;87.40
75321;DHT22;63920;52.130;5.584;2022-10-28T10:05:57;18.60;87.10
75321;DHT22;63920;52.130;5.584;2022-10-28T10:08:24;18.70;86.90
75321;DHT22;63920;52.130;5.584;2022-10-28T10:10:59;18.80;86.30
75321;DHT22;63920;52.130;5.584;2022-10-28T10:13:31;18.90;85.70
75321;DHT22;63920;52.130;5.584;2022-10-28T10:16:22;19.10;84.50
75321;DHT22;63920;52.130;5.584;2022-10-28T10:18:53;19.20;84.90
75321;DHT22;63920;52.130;5.584;2022-10-28T10:24:30;19.20;84.50
75321;DHT22;63920;52.130;5.584;2022-10-28T10:29:36;19.40;84.00
75321;DHT22;63920;52.130;5.584;2022-10-28T10:32:29;19.50;83.20
75321;DHT22;63920;52.130;5.584;2022-10-28T10:35:04;19.50;83.80
75321;DHT22;63920;52.130;5.584;2022-10-28T10:37:33;19.60;82.80
75321;DHT22;63920;52.130;5.584;2022-10-28T10:42:30;19.60;82.80
75321;DHT22;63920;52.130;5.584;2022-10-28T10:45:20;19.70;82.10
75321;DHT22;63920;52.130;5.584;2022-10-28T10:48:03;19.60;83.00
75321;DHT22;63920;52.130;5.584;2022-10-28T10:50:31;19.70;83.40
75321;DHT22;63920;52.130;5.584;2022-10-28T10:52:59;19.80;82.40
75321;DHT22;63920;52.130;5.584;2022-10-28T10:55:39;19.80;82.70
75321;DHT22;63920;52.130;5.584;2022-10-28T10:58:17;19.90;82.40
75321;DHT22;63920;52.130;5.584;2022-10-28T11:00:52;19.90;82.00
75321;DHT22;63920;52.130;5.584;2022-10-28T11:03:28;19.90;81.80
75321;DHT22;63920;52.130;5.584;2022-10-28T11:05:57;20.00;81.90
75321;DHT22;63920;52.130;5.584;2022-10-28T11:08:33;20.00;81.90
75321;DHT22;63920;52.130;5.584;2022-10-28T11:13:33;19.90;82.10
75321;DHT22;63920;52.130;5.584;2022-10-28T11:16:26;20.00;82.40
75321;DHT22;63920;52.130;5.584;2022-10-28T11:18:52;19.90;82.10
75321;DHT22;63920;52.130;5.584;2022-10-28T11:21:38;19.90;82.40
75321;DHT22;63920;52.130;5.584;2022-10-28T11:27:11;19.90;82.70
75321;DHT22;63920;52.130;5.584;2022-10-28T11:29:40;19.90;82.80
75321;DHT22;63920;52.130;5.584;2022-10-28T11:38:00;19.90;82.90
75321;DHT22;63920;52.130;5.584;2022-10-28T11:40:57;19.90;83.30
75321;DHT22;63920;52.130;5.584;2022-10-28T11:43:49;19.90;83.20
75321;DHT22;63920;52.130;5.584;2022-10-28T12:04:09;20.30;81.70
75321;DHT22;63920;52.130;5.584;2022-10-28T12:07:02;20.30;81.60
75321;DHT22;63920;52.130;5.584;2022-10-28T12:12:39;20.40;80.80
75321;DHT22;63920;52.130;5.584;2022-10-28T12:15:17;20.40;80.90
75321;DHT22;63920;52.130;5.584;2022-10-28T12:20:25;20.50;81.00
75321;DHT22;63920;52.130;5.584;2022-10-28T12:22:57;20.50;80.40
75321;DHT22;63920;52.130;5.584;2022-10-28T12:25:26;20.50;80.20
75321;DHT22;63920;52.130;5.584;2022-10-28T12:28:06;20.50;80.30
75321;DHT22;63920;52.130;5.584;2022-10-28T12:30:40;20.50;80.80
75321;DHT22;63920;52.130;5.584;2022-10-28T12:33:13;20.60;79.70
75321;DHT22;63920;52.130;5.584;2022-10-28T12:36:09;20.50;80.30
75321;DHT22;63920;52.130;5.584;2022-10-28T12:39:01;20.60;79.70
75321;DHT22;63920;52.130;5.584;2022-10-28T12:44:18;20.60;79.20
75321;DHT22;63920;52.130;5.584;2022-10-28T12:51:50;20.50;78.80
75321;DHT22;63920;52.130;5.584;2022-10-28T12:57:00;20.50;77.70
75321;DHT22;63920;52.130;5.584;2022-10-28T12:59:47;20.50;77.50
75321;DHT22;63920;52.130;5.584;2022-10-28T13:02:40;20.50;77.30
75321;DHT22;63920;52.130;5.584;2022-10-28T13:05:18;20.50;77.60
75321;DHT22;63920;52.130;5.584;2022-10-28T13:08:46;20.40;78.10
75321;DHT22;63920;52.130;5.584;2022-10-28T13:19:19;20.30;77.30
75321;DHT22;63920;52.130;5.584;2022-10-28T13:27:24;20.20;78.40
75321;DHT22;63920;52.130;5.584;2022-10-28T13:29:55;20.20;78.40
75321;DHT22;63920;52.130;5.584;2022-10-28T13:32:35;20.10;78.70
75321;DHT22;63920;52.130;5.584;2022-10-28T13:35:13;20.10;78.80
75321;DHT22;63920;52.130;5.584;2022-10-28T13:37:41;20.20;78.30
75321;DHT22;63920;52.130;5.584;2022-10-28T13:42:47;20.10;78.60
75321;DHT22;63920;52.130;5.584;2022-10-28T13:45:51;20.10;79.40
75321;DHT22;63920;52.130;5.584;2022-10-28T13:48:45;20.00;79.60
75321;DHT22;63920;52.130;5.584;2022-10-28T13:53:39;20.00;79.90
75321;DHT22;63920;52.130;5.584;2022-10-28T13:56:40;19.90;79.60
75321;DHT22;63920;52.130;5.584;2022-10-28T14:02:15;19.90;80.10
75321;DHT22;63920;52.130;5.584;2022-10-28T14:04:42;19.90;80.30
75321;DHT22;63920;52.130;5.584;2022-10-28T14:07:20;19.90;80.10
75321;DHT22;63920;52.130;5.584;2022-10-28T14:09:50;19.90;80.00
75321;DHT22;63920;52.130;5.584;2022-10-28T14:12:43;19.90;79.90
75321;DHT22;63920;52.130;5.584;2022-10-28T14:15:25;19.80;80.20
75321;DHT22;63920;52.130;5.584;2022-10-28T14:33:34;19.80;81.30
75321;DHT22;63920;52.130;5.584;2022-10-28T14:36:43;19.80;81.30
75321;DHT22;63920;52.130;5.584;2022-10-28T14:48:25;19.60;82.00
75321;DHT22;63920;52.130;5.584;2022-10-28T14:50:53;19.70;82.30
75321;DHT22;63920;52.130;5.584;2022-10-28T14:53:40;19.60;82.40
75321;DHT22;63920;52.130;5.584;2022-10-28T14:56:24;19.60;82.30
75321;DHT22;63920;52.130;5.584;2022-10-28T14:58:52;19.60;82.80
75321;DHT22;63920;52.130;5.584;2022-10-28T15:01:56;19.70;82.40
75321;DHT22;63920;52.130;5.584;2022-10-28T15:04:19;19.80;81.70
75321;DHT22;63920;52.130;5.584;2022-10-28T15:06:45;19.80;81.90
75321;DHT22;63920;52.130;5.584;2022-10-28T15:09:14;19.80;82.20
75321;DHT22;63920;52.130;5.584;2022-10-28T15:11:43;19.70;82.30
75321;DHT22;63920;52.130;5.584;2022-10-28T15:14:28;19.70;82.30
75321;DHT22;63920;52.130;5.584;2022-10-28T15:16:53;19.70;82.60
75321;DHT22;63920;52.130;5.584;2022-10-28T15:19:22;19.70;82.80
75321;DHT22;63920;52.130;5.584;2022-10-28T15:22:16;19.60;83.10
75321;DHT22;63920;52.130;5.584;2022-10-28T15:24:52;19.50;83.30
75321;DHT22;63920;52.130;5.584;2022-10-28T15:27:18;19.50;84.20
75321;DHT22;63920;52.130;5.584;2022-10-28T15:29:44;19.50;83.70
75321;DHT22;63920;52.130;5.584;2022-10-28T15:32:24;19.50;84.00
75321;DHT22;63920;52.130;5.584;2022-10-28T15:34:50;19.50;83.80
75321;DHT22;63920;52.130;5.584;2022-10-28T15:37:23;19.40;84.30
75321;DHT22;63920;52.130;5.584;2022-10-28T15:39:50;19.40;84.60
75321;DHT22;63920;52.130;5.584;2022-10-28T15:42:40;19.40;84.70
75321;DHT22;63920;52.130;5.584;2022-10-28T15:45:16;19.40;84.90
75321;DHT22;63920;52.130;5.584;2022-10-28T15:47:43;19.30;84.90
75321;DHT22;63920;52.130;5.584;2022-10-28T15:52:43;19.30;85.20
75321;DHT22;63920;52.130;5.584;2022-10-28T15:55:29;19.30;85.60
75321;DHT22;63920;52.130;5.584;2022-10-28T15:57:57;19.20;85.60
75321;DHT22;63920;52.130;5.584;2022-10-28T16:00:31;19.30;85.60
75321;DHT22;63920;52.130;5.584;2022-10-28T16:03:05;19.40;85.20
75321;DHT22;63920;52.130;5.584;2022-10-28T16:08:14;19.40;85.70
75321;DHT22;63920;52.130;5.584;2022-10-28T16:10:53;19.20;85.80
75321;DHT22;63920;52.130;5.584;2022-10-28T16:16:02;19.20;86.40
75321;DHT22;63920;52.130;5.584;2022-10-28T16:18:31;19.20;86.40
75321;DHT22;63920;52.130;5.584;2022-10-28T16:20:58;19.10;86.40
75321;DHT22;63920;52.130;5.584;2022-10-28T16:23:30;19.20;86.30
75321;DHT22;63920;52.130;5.584;2022-10-28T16:25:57;19.10;86.30
75321;DHT22;63920;52.130;5.584;2022-10-28T16:28:25;19.20;86.40
75321;DHT22;63920;52.130;5.584;2022-10-28T16:30:53;19.10;86.60
75321;DHT22;63920;52.130;5.584;2022-10-28T16:33:34;19.10;87.00
75321;DHT22;63920;52.130;5.584;2022-10-28T16:36:02;19.10;87.10
75321;DHT22;63920;52.130;5.584;2022-10-28T16:38:29;19.10;87.00
75321;DHT22;63920;52.130;5.584;2022-10-28T16:40:56;19.10;87.10
75321;DHT22;63920;52.130;5.584;2022-10-28T16:43:23;19.00;87.00
75321;DHT22;63920;52.130;5.584;2022-10-28T16:45:51;19.00;87.70
75321;DHT22;63920;52.130;5.584;2022-10-28T16:48:18;19.00;87.80
75321;DHT22;63920;52.130;5.584;2022-10-28T16:50:59;19.00;87.60
75321;DHT22;63920;52.130;5.584;2022-10-28T16:53:25;19.00;87.80
75321;DHT22;63920;52.130;5.584;2022-10-28T16:55:50;18.90;87.80
75321;DHT22;63920;52.130;5.584;2022-10-28T16:58:16;19.00;88.00
75321;DHT22;63920;52.130;5.584;2022-10-28T17:00:42;18.90;88.00
75321;DHT22;63920;52.130;5.584;2022-10-28T17:03:11;18.90;88.00
75321;DHT22;63920;52.130;5.584;2022-10-28T17:05:38;19.00;88.00
75321;DHT22;63920;52.130;5.584;2022-10-28T17:08:04;18.80;88.10
75321;DHT22;63920;52.130;5.584;2022-10-28T17:10:30;18.90;88.30
75321;DHT22;63920;52.130;5.584;2022-10-28T17:12:55;18.90;88.10
75321;DHT22;63920;52.130;5.584;2022-10-28T17:15:21;18.90;88.20
75321;DHT22;63920;52.130;5.584;2022-10-28T17:17:51;18.90;88.30
75321;DHT22;63920;52.130;5.584;2022-10-28T17:20:17;18.90;88.50
75321;DHT22;63920;52.130;5.584;2022-10-28T17:22:43;18.90;88.50
75321;DHT22;63920;52.130;5.584;2022-10-28T17:25:09;18.80;88.00
75321;DHT22;63920;52.130;5.584;2022-10-28T17:27:35;18.80;88.30
75321;DHT22;63920;52.130;5.584;2022-10-28T17:30:01;18.80;88.70
75321;DHT22;63920;52.130;5.584;2022-10-28T17:32:26;18.80;88.90
75321;DHT22;63920;52.130;5.584;2022-10-28T17:34:52;18.80;88.50
75321;DHT22;63920;52.130;5.584;2022-10-28T17:37:18;18.80;88.30
75321;DHT22;63920;52.130;5.584;2022-10-28T17:39:43;18.70;88.80
75321;DHT22;63920;52.130;5.584;2022-10-28T17:42:09;18.80;88.90
75321;DHT22;63920;52.130;5.584;2022-10-28T17:44:35;18.70;89.00
75321;DHT22;63920;52.130;5.584;2022-10-28T17:47:01;18.70;89.00
75321;DHT22;63920;52.130;5.584;2022-10-28T17:49:26;18.60;89.70
75321;DHT22;63920;52.130;5.584;2022-10-28T17:51:52;18.60;89.80
75321;DHT22;63920;52.130;5.584;2022-10-28T17:54:18;18.60;89.80
75321;DHT22;63920;52.130;5.584;2022-10-28T17:56:43;18.60;89.70
75321;DHT22;63920;52.130;5.584;2022-10-28T17:59:09;18.50;90.00
75321;DHT22;63920;52.130;5.584;2022-10-28T18:01:35;18.50;90.10
75321;DHT22;63920;52.130;5.584;2022-10-28T18:04:00;18.50;90.10
75321;DHT22;63920;52.130;5.584;2022-10-28T18:06:28;18.50;89.90
75321;DHT22;63920;52.130;5.584;2022-10-28T18:08:53;18.60;90.00
75321;DHT22;63920;52.130;5.584;2022-10-28T18:11:19;18.50;90.00
75321;DHT22;63920;52.130;5.584;2022-10-28T18:13:46;18.50;90.00
75321;DHT22;63920;52.130;5.584;2022-10-28T18:16:19;18.60;90.00
75321;DHT22;63920;52.130;5.584;2022-10-28T18:18:45;18.50;90.00
75321;DHT22;63920;52.130;5.584;2022-10-28T18:21:12;18.50;90.00
75321;DHT22;63920;52.130;5.584;2022-10-28T18:23:38;18.40;90.30
75321;DHT22;63920;52.130;5.584;2022-10-28T18:26:11;18.30;90.30
75321;DHT22;63920;52.130;5.584;2022-10-28T18:28:38;18.40;90.40
75321;DHT22;63920;52.130;5.584;2022-10-28T18:31:14;18.30;90.40
75321;DHT22;63920;52.130;5.584;2022-10-28T18:33:41;18.20;90.20